sensor_id;sensor_type;location;lat;lon;timestamp;temperature;humidity
40077;DHT22;25777;47.824;18.982;2023-05-10T00:01:36;8.90;99.90
40077;DHT22;25777;47.824;18.982;2023-05-10T00:09:55;9.00;99.90
40077;DHT22;25777;47.824;18.982;2023-05-10T00:15:18;9.00;99.90
40077;DHT22;25777;47.824;18.982;2023-05-10T00:17:50;9.20;99.90
40077;DHT22;25777;47.824;18.982;2023-05-10T00:20:17;9.40;99.90
40077;DHT22;25777;47.824;18.982;2023-05-10T00:22:43;9.50;99.90
40077;DHT22;25777;47.824;18.982;2023-05-10T00:25:17;9.50;99.90
40077;DHT22;25777;47.824;18.982;2023-05-10T00:27:43;9.50;99.90
40077;DHT22;25777;47.824;18.982;2023-05-10T00:30:09;9.50;99.90
40077;DHT22;25777;47.824;18.982;2023-05-10T00:37:44;9.50;99.90
40077;DHT22;25777;47.824;18.982;2023-05-10T00:40:11;9.50;99.90
40077;DHT22;25777;47.824;18.982;2023-05-10T00:42:51;9.60;99.90
40077;DHT22;25777;47.824;18.982;2023-05-10T00:45:33;9.60;99.90
40077;DHT22;25777;47.824;18.982;2023-05-10T00:48:00;9.60;99.90
40077;DHT22;25777;47.824;18.982;2023-05-10T00:50:30;9.60;99.90
40077;DHT22;25777;47.824;18.982;2023-05-10T00:53:11;9.60;99.90
40077;DHT22;25777;47.824;18.982;2023-05-10T00:55:38;9.60;99.90
40077;DHT22;25777;47.824;18.982;2023-05-10T00:58:05;9.60;99.90
40077;DHT22;25777;47.824;18.982;2023-05-10T01:00:33;9.50;99.90
40077;DHT22;25777;47.824;18.982;2023-05-10T01:02:59;9.60;99.90
40077;DHT22;25777;47.824;18.982;2023-05-10T01:05:27;9.60;99.90
40077;DHT22;25777;47.824;18.982;2023-05-10T01:10:43;9.60;99.90
40077;DHT22;25777;47.824;18.982;2023-05-10T01:13:09;9.60;99.90
40077;DHT22;25777;47.824;18.982;2023-05-10T01:15:35;9.50;99.90
40077;DHT22;25777;47.824;18.982;2023-05-10T01:18:04;9.40;99.90
40077;DHT22;25777;47.824;18.982;2023-05-10T01:20:32;9.40;99.90
40077;DHT22;25777;47.824;18.982;2023-05-10T01:25:52;9.30;99.90
40077;DHT22;25777;47.824;18.982;2023-05-10T01:28:27;9.30;99.90
40077;DHT22;25777;47.824;18.982;2023-05-10T01:31:18;9.10;99.90
40077;DHT22;25777;47.824;18.982;2023-05-10T01:41:49;8.70;99.90
40077;DHT22;25777;47.824;18.982;2023-05-10T01:47:07;8.50;99.90
40077;DHT22;25777;47.824;18.982;2023-05-10T01:52:33;8.30;99.90
40077;DHT22;25777;47.824;18.982;2023-05-10T01:57:40;8.20;99.90
40077;DHT22;25777;47.824;18.982;2023-05-10T02:10:32;7.80;99.90
40077;DHT22;25777;47.824;18.982;2023-05-10T02:13:08;7.60;99.90
40077;DHT22;25777;47.824;18.982;2023-05-10T02:18:18;7.50;99.90
40077;DHT22;25777;47.824;18.982;2023-05-10T02:20:53;7.50;99.90
40077;DHT22;25777;47.824;18.982;2023-05-10T02:23:26;7.50;99.90
40077;DHT22;25777;47.824;18.982;2023-05-10T02:25:53;7.60;99.90
40077;DHT22;25777;47.824;18.982;2023-05-10T02:31:30;7.60;99.90
40077;DHT22;25777;47.824;18.982;2023-05-10T02:33:59;7.60;99.90
40077;DHT22;25777;47.824;18.982;2023-05-10T02:36:36;7.60;99.90
40077;DHT22;25777;47.824;18.982;2023-05-10T02:39:11;7.70;99.90
40077;DHT22;25777;47.824;18.982;2023-05-10T02:44:12;7.70;99.90
40077;DHT22;25777;47.824;18.982;2023-05-10T02:46:39;7.90;99.90
40077;DHT22;25777;47.824;18.982;2023-05-10T02:49:05;8.10;99.90
40077;DHT22;25777;47.824;18.982;2023-05-10T02:51:34;8.20;99.90
40077;DHT22;25777;47.824;18.982;2023-05-10T02:54:01;8.20;99.90
40077;DHT22;25777;47.824;18.982;2023-05-10T02:59:21;8.10;99.90
40077;DHT22;25777;47.824;18.982;2023-05-10T03:02:05;8.20;99.90
40077;DHT22;25777;47.824;18.982;2023-05-10T03:04:32;8.10;99.90
40077;DHT22;25777;47.824;18.982;2023-05-10T03:06:57;8.30;99.90
40077;DHT22;25777;47.824;18.982;2023-05-10T03:17:35;8.30;99.90
40077;DHT22;25777;47.824;18.982;2023-05-10T03:23:27;8.60;99.90
40077;DHT22;25777;47.824;18.982;2023-05-10T03:25:33;8.60;99.90
40077;DHT22;25777;47.824;18.982;2023-05-10T03:28:01;8.50;99.90
40077;DHT22;25777;47.824;18.982;2023-05-10T03:33:25;8.60;99.90
40077;DHT22;25777;47.824;18.982;2023-05-10T03:35:51;8.60;99.90
40077;DHT22;25777;47.824;18.982;2023-05-10T03:38:17;8.50;99.90
40077;DHT22;25777;47.824;18.982;2023-05-10T03:43:16;8.50;99.90
40077;DHT22;25777;47.824;18.982;2023-05-10T03:45:53;8.60;99.90
40077;DHT22;25777;47.824;18.982;2023-05-10T03:50:49;8.70;99.90
40077;DHT22;25777;47.824;18.982;2023-05-10T03:53:15;8.80;99.90
40077;DHT22;25777;47.824;18.982;2023-05-10T03:58:22;8.90;99.90
40077;DHT22;25777;47.824;18.982;2023-05-10T04:00:55;9.00;99.90
40077;DHT22;25777;47.824;18.982;2023-05-10T04:03:21;9.10;99.90
40077;DHT22;25777;47.824;18.982;2023-05-10T04:05:47;9.20;99.90
40077;DHT22;25777;47.824;18.982;2023-05-10T04:08:15;9.10;99.90
40077;DHT22;25777;47.824;18.982;2023-05-10T04:10:41;9.20;99.90
40077;DHT22;25777;47.824;18.982;2023-05-10T04:13:08;9.20;99.90
40077;DHT22;25777;47.824;18.982;2023-05-10T04:15:35;9.30;99.90
40077;DHT22;25777;47.824;18.982;2023-05-10T04:18:13;9.30;99.90
40077;DHT22;25777;47.824;18.982;2023-05-10T04:20:41;9.20;99.90
40077;DHT22;25777;47.824;18.982;2023-05-10T04:23:09;9.30;99.90
40077;DHT22;25777;47.824;18.982;2023-05-10T04:28:31;9.30;99.90
40077;DHT22;25777;47.824;18.982;2023-05-10T04:31:06;9.40;99.90
40077;DHT22;25777;47.824;18.982;2023-05-10T04:38:39;9.80;99.90
40077;DHT22;25777;47.824;18.982;2023-05-10T04:41:09;9.90;99.90
40077;DHT22;25777;47.824;18.982;2023-05-10T04:43:35;10.00;99.90
40077;DHT22;25777;47.824;18.982;2023-05-10T04:46:01;10.10;99.90
40077;DHT22;25777;47.824;18.982;2023-05-10T04:48:27;10.20;99.90
40077;DHT22;25777;47.824;18.982;2023-05-10T04:51:02;10.20;99.90
40077;DHT22;25777;47.824;18.982;2023-05-10T04:53:36;10.20;99.90
40077;DHT22;25777;47.824;18.982;2023-05-10T04:56:03;10.30;99.90
40077;DHT22;25777;47.824;18.982;2023-05-10T04:58:29;10.20;99.90
40077;DHT22;25777;47.824;18.982;2023-05-10T05:00:55;10.30;99.90
40077;DHT22;25777;47.824;18.982;2023-05-10T05:03:21;10.20;99.90
40077;DHT22;25777;47.824;18.982;2023-05-10T05:05:47;10.40;99.90
40077;DHT22;25777;47.824;18.982;2023-05-10T05:08:13;10.50;99.90
40077;DHT22;25777;47.824;18.982;2023-05-10T05:13:25;10.80;99.90
40077;DHT22;25777;47.824;18.982;2023-05-10T05:15:52;10.80;99.90
40077;DHT22;25777;47.824;18.982;2023-05-10T05:18:30;10.80;99.90
40077;DHT22;25777;47.824;18.982;2023-05-10T05:20:55;10.90;99.90
40077;DHT22;25777;47.824;18.982;2023-05-10T05:23:22;11.10;99.90
40077;DHT22;25777;47.824;18.982;2023-05-10T05:25:54;11.20;99.90
40077;DHT22;25777;47.824;18.982;2023-05-10T05:28:20;11.30;99.90
40077;DHT22;25777;47.824;18.982;2023-05-10T05:30:46;11.40;99.90
40077;DHT22;25777;47.824;18.982;2023-05-10T05:33:14;11.60;99.90
40077;DHT22;25777;47.824;18.982;2023-05-10T05:35:41;11.70;99.90
40077;DHT22;25777;47.824;18.982;2023-05-10T05:38:11;11.70;99.90
40077;DHT22;25777;47.824;18.982;2023-05-10T05:40:44;11.80;99.90
40077;DHT22;25777;47.824;18.982;2023-05-10T05:43:12;11.90;99.90
40077;DHT22;25777;47.824;18.982;2023-05-10T05:45:55;12.00;99.90
40077;DHT22;25777;47.824;18.982;2023-05-10T05:48:23;12.00;99.90
40077;DHT22;25777;47.824;18.982;2023-05-10T05:50:49;12.00;99.90
40077;DHT22;25777;47.824;18.982;2023-05-10T05:55:55;12.30;99.90
40077;DHT22;25777;47.824;18.982;2023-05-10T05:58:23;12.10;99.90
40077;DHT22;25777;47.824;18.982;2023-05-10T06:00:51;12.20;99.90
40077;DHT22;25777;47.824;18.982;2023-05-10T06:03:17;12.30;99.90
40077;DHT22;25777;47.824;18.982;2023-05-10T06:08:22;12.50;99.90
40077;DHT22;25777;47.824;18.982;2023-05-10T06:13:21;12.50;99.90
40077;DHT22;25777;47.824;18.982;2023-05-10T06:21:36;12.70;99.90
40077;DHT22;25777;47.824;18.982;2023-05-10T06:26:45;12.70;99.90
40077;DHT22;25777;47.824;18.982;2023-05-10T06:29:18;12.80;99.90
40077;DHT22;25777;47.824;18.982;2023-05-10T06:31:48;13.00;99.90
40077;DHT22;25777;47.824;18.982;2023-05-10T06:34:22;13.20;99.90
40077;DHT22;25777;47.824;18.982;2023-05-10T06:36:49;13.20;99.90
40077;DHT22;25777;47.824;18.982;2023-05-10T06:39:14;13.30;99.90
40077;DHT22;25777;47.824;18.982;2023-05-10T06:41:48;13.40;99.90
40077;DHT22;25777;47.824;18.982;2023-05-10T06:44:15;13.30;99.90
40077;DHT22;25777;47.824;18.982;2023-05-10T06:49:27;13.40;99.90
40077;DHT22;25777;47.824;18.982;2023-05-10T06:51:52;13.60;99.90
40077;DHT22;25777;47.824;18.982;2023-05-10T06:54:19;13.60;99.90
40077;DHT22;25777;47.824;18.982;2023-05-10T06:56:57;13.70;99.90
40077;DHT22;25777;47.824;18.982;2023-05-10T07:01:54;14.00;99.90
40077;DHT22;25777;47.824;18.982;2023-05-10T07:07:08;14.20;99.90
40077;DHT22;25777;47.824;18.982;2023-05-10T07:09:34;14.10;99.90
40077;DHT22;25777;47.824;18.982;2023-05-10T07:12:06;14.30;99.90
40077;DHT22;25777;47.824;18.982;2023-05-10T07:14:32;14.20;99.90
40077;DHT22;25777;47.824;18.982;2023-05-10T07:22:28;14.50;99.90
40077;DHT22;25777;47.824;18.982;2023-05-10T07:24:55;14.60;99.90
40077;DHT22;25777;47.824;18.982;2023-05-10T07:27:21;14.20;99.90
40077;DHT22;25777;47.824;18.982;2023-05-10T07:29:47;14.60;99.90
40077;DHT22;25777;47.824;18.982;2023-05-10T07:32:15;14.60;99.90
40077;DHT22;25777;47.824;18.982;2023-05-10T07:34:42;14.60;99.40
40077;DHT22;25777;47.824;18.982;2023-05-10T07:37:16;15.10;99.30
40077;DHT22;25777;47.824;18.982;2023-05-10T07:39:43;15.20;98.80
40077;DHT22;25777;47.824;18.982;2023-05-10T07:42:09;15.30;99.00
40077;DHT22;25777;47.824;18.982;2023-05-10T07:44:36;15.40;98.60
40077;DHT22;25777;47.824;18.982;2023-05-10T07:47:06;14.90;98.60
40077;DHT22;25777;47.824;18.982;2023-05-10T07:49:32;14.80;99.60
40077;DHT22;25777;47.824;18.982;2023-05-10T07:51:58;15.10;99.20
40077;DHT22;25777;47.824;18.982;2023-05-10T07:54:32;15.40;99.00
40077;DHT22;25777;47.824;18.982;2023-05-10T07:57:09;15.10;97.70
40077;DHT22;25777;47.824;18.982;2023-05-10T08:02:32;15.90;96.90
40077;DHT22;25777;47.824;18.982;2023-05-10T08:04:59;16.10;95.60
40077;DHT22;25777;47.824;18.982;2023-05-10T08:07:26;15.90;96.30
40077;DHT22;25777;47.824;18.982;2023-05-10T08:09:55;16.20;96.10
40077;DHT22;25777;47.824;18.982;2023-05-10T08:12:20;16.50;94.60
40077;DHT22;25777;47.824;18.982;2023-05-10T08:14:53;16.60;94.30
40077;DHT22;25777;47.824;18.982;2023-05-10T08:17:28;16.10;94.00
40077;DHT22;25777;47.824;18.982;2023-05-10T08:19:54;16.40;94.60
40077;DHT22;25777;47.824;18.982;2023-05-10T08:22:22;16.70;94.40
40077;DHT22;25777;47.824;18.982;2023-05-10T08:24:48;16.70;94.80
40077;DHT22;25777;47.824;18.982;2023-05-10T08:27:21;16.30;92.40
40077;DHT22;25777;47.824;18.982;2023-05-10T08:29:47;15.70;93.50
40077;DHT22;25777;47.824;18.982;2023-05-10T08:34:42;16.20;92.50
40077;DHT22;25777;47.824;18.982;2023-05-10T08:37:09;15.90;92.70
40077;DHT22;25777;47.824;18.982;2023-05-10T08:42:08;15.60;93.60
40077;DHT22;25777;47.824;18.982;2023-05-10T08:47:19;15.50;94.40
40077;DHT22;25777;47.824;18.982;2023-05-10T08:52:26;16.10;91.40
40077;DHT22;25777;47.824;18.982;2023-05-10T08:55:03;16.20;92.70
40077;DHT22;25777;47.824;18.982;2023-05-10T08:57:30;16.50;90.90
40077;DHT22;25777;47.824;18.982;2023-05-10T09:02:35;15.90;94.10
40077;DHT22;25777;47.824;18.982;2023-05-10T09:05:02;15.70;92.90
40077;DHT22;25777;47.824;18.982;2023-05-10T09:07:31;15.50;93.50
40077;DHT22;25777;47.824;18.982;2023-05-10T09:12:34;15.40;94.30
40077;DHT22;25777;47.824;18.982;2023-05-10T09:17:29;16.00;93.20
40077;DHT22;25777;47.824;18.982;2023-05-10T09:19:59;16.70;93.10
40077;DHT22;25777;47.824;18.982;2023-05-10T09:22:24;16.60;92.30
40077;DHT22;25777;47.824;18.982;2023-05-10T09:25:07;16.40;93.10
40077;DHT22;25777;47.824;18.982;2023-05-10T09:27:40;16.00;92.60
40077;DHT22;25777;47.824;18.982;2023-05-10T09:30:07;16.80;92.70
40077;DHT22;25777;47.824;18.982;2023-05-10T09:32:47;16.50;90.30
40077;DHT22;25777;47.824;18.982;2023-05-10T09:35:14;16.50;91.80
40077;DHT22;25777;47.824;18.982;2023-05-10T09:37:48;16.60;91.80
40077;DHT22;25777;47.824;18.982;2023-05-10T09:48:18;17.10;91.80
40077;DHT22;25777;47.824;18.982;2023-05-10T09:53:20;17.60;88.20
40077;DHT22;25777;47.824;18.982;2023-05-10T09:55:52;17.80;88.30
40077;DHT22;25777;47.824;18.982;2023-05-10T09:58:19;17.50;88.00
40077;DHT22;25777;47.824;18.982;2023-05-10T10:00:49;16.80;90.90
40077;DHT22;25777;47.824;18.982;2023-05-10T10:03:27;16.40;90.40
40077;DHT22;25777;47.824;18.982;2023-05-10T10:05:55;16.70;90.80
40077;DHT22;25777;47.824;18.982;2023-05-10T10:08:23;16.70;89.30
40077;DHT22;25777;47.824;18.982;2023-05-10T10:10:55;16.90;90.10
40077;DHT22;25777;47.824;18.982;2023-05-10T10:16:26;17.40;90.50
40077;DHT22;25777;47.824;18.982;2023-05-10T10:18:54;17.10;88.40
40077;DHT22;25777;47.824;18.982;2023-05-10T10:21:22;17.40;87.40
40077;DHT22;25777;47.824;18.982;2023-05-10T10:23:48;18.20;85.20
40077;DHT22;25777;47.824;18.982;2023-05-10T10:26:14;19.20;82.00
40077;DHT22;25777;47.824;18.982;2023-05-10T10:34:10;19.60;74.10
40077;DHT22;25777;47.824;18.982;2023-05-10T10:36:46;19.90;72.20
40077;DHT22;25777;47.824;18.982;2023-05-10T10:39:17;19.70;75.70
40077;DHT22;25777;47.824;18.982;2023-05-10T10:41:54;20.10;78.50
40077;DHT22;25777;47.824;18.982;2023-05-10T10:50:03;20.10;72.60
40077;DHT22;25777;47.824;18.982;2023-05-10T10:52:40;20.70;70.10
40077;DHT22;25777;47.824;18.982;2023-05-10T10:55:20;20.80;72.80
40077;DHT22;25777;47.824;18.982;2023-05-10T10:57:53;20.60;74.00
40077;DHT22;25777;47.824;18.982;2023-05-10T11:03:14;20.10;74.10
40077;DHT22;25777;47.824;18.982;2023-05-10T11:05:49;19.90;71.20
40077;DHT22;25777;47.824;18.982;2023-05-10T11:08:30;20.60;70.20
40077;DHT22;25777;47.824;18.982;2023-05-10T11:11:02;20.30;69.00
40077;DHT22;25777;47.824;18.982;2023-05-10T11:13:47;20.60;71.90
40077;DHT22;25777;47.824;18.982;2023-05-10T11:16:24;20.00;73.80
40077;DHT22;25777;47.824;18.982;2023-05-10T11:21:44;19.30;72.60
40077;DHT22;25777;47.824;18.982;2023-05-10T11:24:14;20.00;73.80
40077;DHT22;25777;47.824;18.982;2023-05-10T11:29:09;19.10;72.20
40077;DHT22;25777;47.824;18.982;2023-05-10T11:31:35;19.70;70.40
40077;DHT22;25777;47.824;18.982;2023-05-10T11:34:09;19.70;68.20
40077;DHT22;25777;47.824;18.982;2023-05-10T11:36:38;20.60;71.00
40077;DHT22;25777;47.824;18.982;2023-05-10T11:39:04;20.80;67.70
40077;DHT22;25777;47.824;18.982;2023-05-10T11:41:30;20.30;65.40
40077;DHT22;25777;47.824;18.982;2023-05-10T11:44:02;20.00;71.30
40077;DHT22;25777;47.824;18.982;2023-05-10T11:46:28;20.30;66.00
40077;DHT22;25777;47.824;18.982;2023-05-10T11:48:55;20.30;64.30
40077;DHT22;25777;47.824;18.982;2023-05-10T11:51:22;20.60;66.20
40077;DHT22;25777;47.824;18.982;2023-05-10T11:53:51;20.00;65.00
40077;DHT22;25777;47.824;18.982;2023-05-10T11:56:25;20.20;66.60
40077;DHT22;25777;47.824;18.982;2023-05-10T11:58:54;19.60;67.40
40077;DHT22;25777;47.824;18.982;2023-05-10T12:01:20;19.70;65.50
40077;DHT22;25777;47.824;18.982;2023-05-10T12:03:46;19.30;64.40
40077;DHT22;25777;47.824;18.982;2023-05-10T12:06:13;19.40;66.10
40077;DHT22;25777;47.824;18.982;2023-05-10T12:08:44;19.80;64.80
40077;DHT22;25777;47.824;18.982;2023-05-10T12:11:10;19.00;66.50
40077;DHT22;25777;47.824;18.982;2023-05-10T12:13:39;19.20;70.90
40077;DHT22;25777;47.824;18.982;2023-05-10T12:16:18;19.00;71.80
40077;DHT22;25777;47.824;18.982;2023-05-10T12:18:44;19.00;70.20
40077;DHT22;25777;47.824;18.982;2023-05-10T12:21:11;18.90;72.10
40077;DHT22;25777;47.824;18.982;2023-05-10T12:23:49;18.60;70.60
40077;DHT22;25777;47.824;18.982;2023-05-10T12:28:49;18.00;73.70
40077;DHT22;25777;47.824;18.982;2023-05-10T12:33:44;18.00;71.40
40077;DHT22;25777;47.824;18.982;2023-05-10T12:36:16;18.20;74.10
40077;DHT22;25777;47.824;18.982;2023-05-10T12:38:48;18.20;72.90
40077;DHT22;25777;47.824;18.982;2023-05-10T12:43:49;18.30;72.00
40077;DHT22;25777;47.824;18.982;2023-05-10T12:49:04;18.10;71.20
40077;DHT22;25777;47.824;18.982;2023-05-10T12:51:32;18.20;70.70
40077;DHT22;25777;47.824;18.982;2023-05-10T12:53:59;18.10;72.10
40077;DHT22;25777;47.824;18.982;2023-05-10T12:56:26;18.00;71.80
40077;DHT22;25777;47.824;18.982;2023-05-10T12:58:51;17.90;70.30
40077;DHT22;25777;47.824;18.982;2023-05-10T13:03:56;18.10;71.10
40077;DHT22;25777;47.824;18.982;2023-05-10T13:06:22;18.10;70.20
40077;DHT22;25777;47.824;18.982;2023-05-10T13:08:48;18.30;75.00
40077;DHT22;25777;47.824;18.982;2023-05-10T13:11:14;18.20;71.70
40077;DHT22;25777;47.824;18.982;2023-05-10T13:16:12;19.00;70.20
40077;DHT22;25777;47.824;18.982;2023-05-10T13:18:37;18.90;71.90
40077;DHT22;25777;47.824;18.982;2023-05-10T13:21:03;18.60;73.10
40077;DHT22;25777;47.824;18.982;2023-05-10T13:23:30;18.40;72.90
40077;DHT22;25777;47.824;18.982;2023-05-10T13:25:57;18.30;70.90
40077;DHT22;25777;47.824;18.982;2023-05-10T13:28:29;18.30;69.90
40077;DHT22;25777;47.824;18.982;2023-05-10T13:30:55;18.30;68.80
40077;DHT22;25777;47.824;18.982;2023-05-10T13:33:24;18.30;69.00
40077;DHT22;25777;47.824;18.982;2023-05-10T13:35:50;18.10;68.60
40077;DHT22;25777;47.824;18.982;2023-05-10T13:38:16;18.20;68.40
40077;DHT22;25777;47.824;18.982;2023-05-10T13:40:41;18.20;68.80
40077;DHT22;25777;47.824;18.982;2023-05-10T13:45:38;18.10;68.30
40077;DHT22;25777;47.824;18.982;2023-05-10T13:48:04;18.30;70.30
40077;DHT22;25777;47.824;18.982;2023-05-10T13:50:31;18.20;69.30
40077;DHT22;25777;47.824;18.982;2023-05-10T13:53:07;18.40;68.70
40077;DHT22;25777;47.824;18.982;2023-05-10T13:55:33;18.80;66.40
40077;DHT22;25777;47.824;18.982;2023-05-10T13:58:04;19.10;65.10
40077;DHT22;25777;47.824;18.982;2023-05-10T14:00:30;18.90;69.20
40077;DHT22;25777;47.824;18.982;2023-05-10T14:08:06;19.20;65.70
40077;DHT22;25777;47.824;18.982;2023-05-10T14:10:32;19.60;68.60
40077;DHT22;25777;47.824;18.982;2023-05-10T14:15:29;19.70;65.80
40077;DHT22;25777;47.824;18.982;2023-05-10T14:17:56;19.50;65.20
40077;DHT22;25777;47.824;18.982;2023-05-10T14:20:22;19.90;67.10
40077;DHT22;25777;47.824;18.982;2023-05-10T14:22:48;19.50;63.10
40077;DHT22;25777;47.824;18.982;2023-05-10T14:27:51;19.40;66.90
40077;DHT22;25777;47.824;18.982;2023-05-10T14:30:20;19.40;65.40
40077;DHT22;25777;47.824;18.982;2023-05-10T14:32:47;19.10;64.00
40077;DHT22;25777;47.824;18.982;2023-05-10T14:35:14;18.90;65.60
40077;DHT22;25777;47.824;18.982;2023-05-10T14:37:40;18.70;65.70
40077;DHT22;25777;47.824;18.982;2023-05-10T14:40:12;18.60;67.80
40077;DHT22;25777;47.824;18.982;2023-05-10T14:42:40;18.60;66.00
40077;DHT22;25777;47.824;18.982;2023-05-10T14:45:06;18.50;67.20
40077;DHT22;25777;47.824;18.982;2023-05-10T14:47:32;18.90;67.00
40077;DHT22;25777;47.824;18.982;2023-05-10T14:49:58;18.80;69.40
40077;DHT22;25777;47.824;18.982;2023-05-10T14:52:25;18.70;68.40
40077;DHT22;25777;47.824;18.982;2023-05-10T14:54:58;18.40;66.30
40077;DHT22;25777;47.824;18.982;2023-05-10T14:57:25;18.10;66.10
40077;DHT22;25777;47.824;18.982;2023-05-10T14:59:52;18.10;66.30
40077;DHT22;25777;47.824;18.982;2023-05-10T15:02:18;18.10;65.00
40077;DHT22;25777;47.824;18.982;2023-05-10T15:04:43;18.00;65.80
40077;DHT22;25777;47.824;18.982;2023-05-10T15:07:15;17.90;65.00
40077;DHT22;25777;47.824;18.982;2023-05-10T15:09:50;18.00;66.70
40077;DHT22;25777;47.824;18.982;2023-05-10T15:12:17;17.90;66.60
40077;DHT22;25777;47.824;18.982;2023-05-10T15:14:50;17.90;70.10
40077;DHT22;25777;47.824;18.982;2023-05-10T15:17:16;17.80;70.00
40077;DHT22;25777;47.824;18.982;2023-05-10T15:22:12;17.90;72.00
40077;DHT22;25777;47.824;18.982;2023-05-10T15:24:38;18.00;72.20
40077;DHT22;25777;47.824;18.982;2023-05-10T15:27:04;17.90;71.60
40077;DHT22;25777;47.824;18.982;2023-05-10T15:29:45;17.60;72.50
40077;DHT22;25777;47.824;18.982;2023-05-10T15:34:42;17.30;73.70
40077;DHT22;25777;47.824;18.982;2023-05-10T15:39:38;17.10;73.40
40077;DHT22;25777;47.824;18.982;2023-05-10T15:47:16;17.10;74.90
40077;DHT22;25777;47.824;18.982;2023-05-10T15:49:43;17.10;74.10
40077;DHT22;25777;47.824;18.982;2023-05-10T15:54:39;17.10;74.50
40077;DHT22;25777;47.824;18.982;2023-05-10T15:57:06;17.10;74.50
40077;DHT22;25777;47.824;18.982;2023-05-10T16:04:31;17.10;75.80
40077;DHT22;25777;47.824;18.982;2023-05-10T16:06:56;17.10;74.10
40077;DHT22;25777;47.824;18.982;2023-05-10T16:09:24;17.10;76.40
40077;DHT22;25777;47.824;18.982;2023-05-10T16:11:51;17.10;74.40
40077;DHT22;25777;47.824;18.982;2023-05-10T16:14:17;17.10;77.00
40077;DHT22;25777;47.824;18.982;2023-05-10T16:19:13;17.00;75.70
40077;DHT22;25777;47.824;18.982;2023-05-10T16:21:40;17.00;75.60
40077;DHT22;25777;47.824;18.982;2023-05-10T16:29:08;16.90;76.40
40077;DHT22;25777;47.824;18.982;2023-05-10T16:34:05;16.90;75.90
40077;DHT22;25777;47.824;18.982;2023-05-10T16:36:31;16.90;76.90
40077;DHT22;25777;47.824;18.982;2023-05-10T16:38:57;16.80;77.10
40077;DHT22;25777;47.824;18.982;2023-05-10T16:41:23;16.80;76.60
40077;DHT22;25777;47.824;18.982;2023-05-10T16:43:50;16.80;77.40
40077;DHT22;25777;47.824;18.982;2023-05-10T16:46:16;16.70;77.40
40077;DHT22;25777;47.824;18.982;2023-05-10T16:48:41;16.70;76.50
40077;DHT22;25777;47.824;18.982;2023-05-10T16:56:23;16.70;78.80
40077;DHT22;25777;47.824;18.982;2023-05-10T16:58:54;16.70;77.10
40077;DHT22;25777;47.824;18.982;2023-05-10T17:01:19;16.70;77.70
40077;DHT22;25777;47.824;18.982;2023-05-10T17:03:48;16.60;78.60
40077;DHT22;25777;47.824;18.982;2023-05-10T17:06:22;16.60;79.80
40077;DHT22;25777;47.824;18.982;2023-05-10T17:08:48;16.50;79.70
40077;DHT22;25777;47.824;18.982;2023-05-10T17:11:14;16.40;79.50
40077;DHT22;25777;47.824;18.982;2023-05-10T17:13:40;16.40;77.50
40077;DHT22;25777;47.824;18.982;2023-05-10T17:16:07;16.40;76.80
40077;DHT22;25777;47.824;18.982;2023-05-10T17:18:33;16.40;78.80
40077;DHT22;25777;47.824;18.982;2023-05-10T17:21:05;16.40;78.50
40077;DHT22;25777;47.824;18.982;2023-05-10T17:23:31;16.30;78.90
40077;DHT22;25777;47.824;18.982;2023-05-10T17:25:59;16.30;78.60
40077;DHT22;25777;47.824;18.982;2023-05-10T17:28:26;16.20;78.60
40077;DHT22;25777;47.824;18.982;2023-05-10T17:30:57;16.20;77.50
40077;DHT22;25777;47.824;18.982;2023-05-10T17:33:24;16.10;78.10
40077;DHT22;25777;47.824;18.982;2023-05-10T17:35:50;16.10;77.90
40077;DHT22;25777;47.824;18.982;2023-05-10T17:38:16;16.10;79.50
40077;DHT22;25777;47.824;18.982;2023-05-10T17:40:49;16.00;79.50
40077;DHT22;25777;47.824;18.982;2023-05-10T17:43:16;15.90;78.00
40077;DHT22;25777;47.824;18.982;2023-05-10T17:45:42;16.00;79.40
40077;DHT22;25777;47.824;18.982;2023-05-10T17:48:09;15.80;79.30
40077;DHT22;25777;47.824;18.982;2023-05-10T17:55:40;15.50;80.90
40077;DHT22;25777;47.824;18.982;2023-05-10T17:58:20;15.40;81.60
40077;DHT22;25777;47.824;18.982;2023-05-10T18:03:38;15.20;84.80
40077;DHT22;25777;47.824;18.982;2023-05-10T18:06:05;15.20;84.00
40077;DHT22;25777;47.824;18.982;2023-05-10T18:08:32;15.00;87.70
40077;DHT22;25777;47.824;18.982;2023-05-10T18:10:58;15.00;87.30
40077;DHT22;25777;47.824;18.982;2023-05-10T18:13:26;14.80;90.00
40077;DHT22;25777;47.824;18.982;2023-05-10T18:18:20;14.60;91.60
40077;DHT22;25777;47.824;18.982;2023-05-10T18:20:46;14.50;92.70
40077;DHT22;25777;47.824;18.982;2023-05-10T18:23:25;14.30;93.20
40077;DHT22;25777;47.824;18.982;2023-05-10T18:25:52;14.20;93.10
40077;DHT22;25777;47.824;18.982;2023-05-10T18:28:19;14.10;94.40
40077;DHT22;25777;47.824;18.982;2023-05-10T18:30:57;14.00;94.00
40077;DHT22;25777;47.824;18.982;2023-05-10T18:33:37;14.00;94.60
40077;DHT22;25777;47.824;18.982;2023-05-10T18:38:59;13.70;95.90
40077;DHT22;25777;47.824;18.982;2023-05-10T18:44:16;13.30;98.00
40077;DHT22;25777;47.824;18.982;2023-05-10T18:46:49;13.10;99.30
40077;DHT22;25777;47.824;18.982;2023-05-10T18:49:17;13.00;99.90
40077;DHT22;25777;47.824;18.982;2023-05-10T18:51:44;12.80;99.90
40077;DHT22;25777;47.824;18.982;2023-05-10T18:57:04;12.70;99.90
40077;DHT22;25777;47.824;18.982;2023-05-10T19:10:05;12.20;99.90
40077;DHT22;25777;47.824;18.982;2023-05-10T19:12:32;12.10;99.90
40077;DHT22;25777;47.824;18.982;2023-05-10T19:14:58;12.00;99.90
40077;DHT22;25777;47.824;18.982;2023-05-10T19:23:06;11.70;99.90
40077;DHT22;25777;47.824;18.982;2023-05-10T19:25:32;11.70;99.90
40077;DHT22;25777;47.824;18.982;2023-05-10T19:30:51;11.50;99.90
40077;DHT22;25777;47.824;18.982;2023-05-10T19:33:25;11.50;99.90
40077;DHT22;25777;47.824;18.982;2023-05-10T19:35:52;11.40;99.90
40077;DHT22;25777;47.824;18.982;2023-05-10T19:38:32;11.30;99.90
40077;DHT22;25777;47.824;18.982;2023-05-10T19:41:04;11.20;99.90
40077;DHT22;25777;47.824;18.982;2023-05-10T19:43:31;11.20;99.90
40077;DHT22;25777;47.824;18.982;2023-05-10T19:46:00;11.10;99.90
40077;DHT22;25777;47.824;18.982;2023-05-10T19:48:26;11.00;99.90
40077;DHT22;25777;47.824;18.982;2023-05-10T19:53:28;10.90;99.90
40077;DHT22;25777;47.824;18.982;2023-05-10T19:58:24;10.70;99.90
40077;DHT22;25777;47.824;18.982;2023-05-10T20:03:56;10.70;99.90
40077;DHT22;25777;47.824;18.982;2023-05-10T20:06:29;10.60;99.90
40077;DHT22;25777;47.824;18.982;2023-05-10T20:08:56;10.60;99.90
40077;DHT22;25777;47.824;18.982;2023-05-10T20:11:22;10.50;99.90
40077;DHT22;25777;47.824;18.982;2023-05-10T20:19:18;10.50;99.90